createdAt,value
2023-05-12T00:00:21.398Z,32.40
2023-05-12T00:01:24.070Z,34.90
2023-05-12T00:02:26.368Z,37.60
2023-05-12T00:03:28.927Z,37.50
2023-05-12T00:04:31.316Z,37.30
2023-05-12T00:05:33.708Z,40.50
2023-05-12T00:06:36.005Z,39.80
2023-05-12T00:07:38.207Z,34.90
2023-05-12T00:08:40.765Z,42.70
2023-05-12T00:09:42.828Z,38.70
2023-05-12T00:10:45.125Z,39.22
2023-05-12T00:11:47.275Z,40.90
2023-05-12T00:12:49.388Z,39.10
2023-05-12T00:13:51.488Z,41.56
2023-05-12T00:14:53.899Z,24.40
2023-05-12T00:15:56.152Z,34.00
2023-05-12T00:16:58.320Z,40.40
2023-05-12T00:18:00.410Z,36.33
2023-05-12T00:19:03.049Z,35.40
2023-05-12T00:20:06.460Z,32.90
2023-05-12T00:21:08.713Z,39.90
2023-05-12T00:22:11.351Z,37.30
2023-05-12T00:23:13.729Z,35.20
2023-05-12T00:24:16.051Z,39.90
2023-05-12T00:25:18.637Z,37.40
2023-05-12T00:26:20.865Z,33.60
2023-05-12T00:27:23.338Z,32.10
2023-05-12T00:28:25.635Z,38.90
2023-05-12T00:29:27.914Z,38.80
2023-05-12T00:30:30.321Z,41.90
2023-05-12T00:31:32.683Z,34.70
2023-05-12T00:32:35.053Z,36.80
2023-05-12T00:33:37.356Z,39.80
2023-05-12T00:34:39.545Z,39.60
2023-05-12T00:35:41.696Z,36.80
2023-05-12T00:36:44.041Z,38.20
2023-05-12T00:37:46.216Z,38.10
2023-05-12T00:38:48.572Z,43.56
2023-05-12T00:39:50.843Z,40.70
2023-05-12T00:40:53.344Z,37.60
2023-05-12T00:41:57.574Z,41.50
2023-05-12T00:42:59.982Z,33.40
2023-05-12T00:44:02.245Z,39.90
2023-05-12T00:45:05.488Z,39.70
2023-05-12T00:46:08.621Z,39.40
2023-05-12T00:47:10.923Z,37.30
2023-05-12T00:48:13.482Z,39.70
2023-05-12T00:49:16.015Z,41.60
2023-05-12T00:50:18.897Z,37.50
2023-05-12T00:51:22.197Z,41.36
2023-05-12T00:52:24.922Z,41.18
2023-05-12T00:53:35.101Z,39.82
2023-05-12T00:54:34.436Z,41.40
2023-05-12T00:55:37.388Z,37.80
2023-05-12T00:56:40.307Z,39.10
2023-05-12T00:57:43.892Z,39.40
2023-05-12T00:58:47.408Z,36.20
2023-05-12T00:59:50.764Z,34.10
2023-05-12T01:00:53.258Z,38.70
2023-05-12T01:01:56.399Z,40.70
2023-05-12T01:02:59.086Z,34.90
2023-05-12T01:04:03.938Z,41.00
2023-05-12T01:05:07.490Z,31.00
2023-05-12T01:07:24.456Z,36.50
2023-05-12T01:08:27.790Z,31.70
2023-05-12T01:09:30.358Z,33.70
2023-05-12T01:10:33.671Z,36.70
2023-05-12T01:11:37.139Z,38.20
2023-05-12T01:12:40.387Z,35.30
2023-05-12T01:13:42.659Z,40.30
2023-05-12T01:14:44.817Z,33.80
2023-05-12T01:15:47.790Z,37.80
2023-05-12T01:16:57.517Z,35.80
2023-05-12T01:18:02.230Z,34.40
2023-05-12T01:19:06.400Z,31.60
2023-05-12T01:20:12.131Z,34.20
2023-05-12T01:21:16.152Z,28.40
2023-05-12T01:22:19.540Z,30.70
2023-05-12T01:23:25.517Z,35.30
2023-05-12T01:24:31.249Z,33.40
2023-05-12T01:25:34.619Z,36.10
2023-05-12T01:26:37.957Z,31.50
2023-05-12T01:27:42.530Z,28.10
2023-05-12T01:28:47.426Z,34.50
2023-05-12T01:29:52.207Z,32.10
2023-05-12T01:30:54.973Z,38.10
2023-05-12T01:31:58.387Z,32.30
2023-05-12T01:33:02.007Z,37.10
2023-05-12T01:34:04.846Z,33.90
2023-05-12T01:35:07.614Z,34.00
2023-05-12T01:36:11.630Z,32.50
2023-05-12T01:37:13.926Z,33.20
2023-05-12T01:38:16.683Z,38.20
2023-05-12T01:39:18.998Z,34.60
2023-05-12T01:40:23.479Z,31.10
2023-05-12T01:41:26.062Z,28.30
2023-05-12T01:42:28.357Z,29.10
2023-05-12T01:43:30.826Z,31.50
2023-05-12T01:44:33.257Z,29.30
2023-05-12T01:45:35.594Z,31.50
2023-05-12T01:46:38.044Z,34.70
2023-05-12T01:47:40.301Z,34.10
2023-05-12T01:48:44.586Z,27.70
2023-05-12T01:49:47.022Z,31.30
2023-05-12T01:50:51.299Z,32.20
2023-05-12T01:51:55.415Z,29.00
2023-05-12T01:52:59.456Z,33.10
2023-05-12T01:54:02.611Z,26.91
2023-05-12T01:55:07.074Z,33.00
2023-05-12T01:56:11.624Z,31.10
2023-05-12T01:57:14.200Z,35.40
2023-05-12T01:58:16.262Z,31.00
2023-05-12T01:59:18.639Z,37.00
2023-05-12T02:00:21.327Z,29.70
2023-05-12T02:01:24.597Z,30.60
2023-05-12T02:02:26.977Z,30.30
2023-05-12T02:03:29.254Z,33.70
2023-05-12T02:04:32.454Z,31.50
2023-05-12T02:05:35.009Z,31.10
2023-05-12T02:06:37.947Z,30.50
2023-05-12T02:07:40.130Z,30.90
2023-05-12T02:08:43.567Z,29.00
2023-05-12T02:09:46.418Z,28.50
2023-05-12T02:10:49.172Z,33.64
2023-05-12T02:11:51.458Z,32.40
2023-05-12T02:12:53.680Z,30.22
2023-05-12T02:13:55.924Z,31.20
2023-05-12T02:14:58.923Z,32.80
2023-05-12T02:16:01.734Z,33.70
2023-05-12T02:17:04.333Z,31.20
2023-05-12T02:18:06.872Z,30.90
2023-05-12T02:19:09.148Z,33.30
2023-05-12T02:20:12.507Z,29.64
2023-05-12T02:21:14.862Z,30.00
2023-05-12T02:22:17.003Z,28.10
2023-05-12T02:23:19.363Z,31.90
2023-05-12T02:24:21.777Z,31.80
2023-05-12T02:25:24.408Z,27.40
2023-05-12T02:26:27.195Z,31.90
2023-05-12T02:27:29.746Z,31.55
2023-05-12T02:28:32.095Z,30.50
2023-05-12T02:29:34.954Z,30.45
2023-05-12T02:30:37.719Z,29.80
2023-05-12T02:31:40.960Z,28.70
2023-05-12T02:32:52.311Z,29.60
2023-05-12T02:33:54.649Z,28.90
2023-05-12T02:34:57.515Z,29.40
2023-05-12T02:36:00.137Z,30.90
2023-05-12T02:37:02.484Z,29.60
2023-05-12T02:38:04.827Z,29.70
2023-05-12T02:39:07.282Z,29.60
2023-05-12T02:40:10.965Z,25.00
2023-05-12T02:41:14.886Z,33.50
2023-05-12T02:42:17.864Z,33.20
2023-05-12T02:43:20.441Z,28.60
2023-05-12T02:44:22.632Z,30.60
2023-05-12T02:45:25.186Z,30.40
2023-05-12T02:46:27.955Z,28.80
2023-05-12T02:47:30.903Z,29.70
2023-05-12T02:48:33.243Z,31.50
2023-05-12T02:49:35.522Z,32.80
2023-05-12T02:50:38.237Z,33.70
2023-05-12T02:51:40.433Z,29.70
2023-05-12T02:52:42.837Z,22.10
2023-05-12T02:53:45.442Z,31.82
2023-05-12T02:54:47.634Z,31.00
2023-05-12T02:55:49.766Z,33.33
2023-05-12T02:56:52.125Z,32.40
2023-05-12T02:57:54.416Z,34.60
2023-05-12T02:58:56.736Z,31.40
2023-05-12T03:00:00.021Z,31.20
2023-05-12T03:01:10.009Z,34.00
2023-05-12T03:02:06.614Z,31.40
2023-05-12T03:03:09.123Z,31.20
2023-05-12T03:04:11.428Z,34.70
2023-05-12T03:05:13.684Z,30.60
2023-05-12T03:06:16.395Z,33.20
2023-05-12T03:07:18.759Z,30.40
2023-05-12T03:08:22.468Z,33.27
2023-05-12T03:09:24.833Z,22.80
2023-05-12T03:10:27.250Z,30.70
2023-05-12T03:11:29.439Z,31.40
2023-05-12T03:12:31.830Z,29.90
2023-05-12T03:13:34.514Z,32.50
2023-05-12T03:14:37.419Z,31.50
2023-05-12T03:15:39.572Z,33.70
2023-05-12T03:16:42.173Z,31.10
2023-05-12T03:17:45.547Z,32.90
2023-05-12T03:18:48.400Z,29.20
2023-05-12T03:19:50.538Z,33.30
2023-05-12T03:20:52.912Z,37.80
2023-05-12T03:21:57.031Z,32.10
2023-05-12T03:23:00.616Z,37.27
2023-05-12T03:24:03.771Z,35.00
2023-05-12T03:25:08.836Z,32.70
2023-05-12T03:26:13.455Z,37.30
2023-05-12T03:27:15.642Z,36.80
2023-05-12T03:28:17.897Z,31.10
2023-05-12T03:29:20.806Z,36.30
2023-05-12T03:30:23.155Z,31.00
2023-05-12T03:31:25.380Z,37.60
2023-05-12T03:32:27.831Z,37.44
2023-05-12T03:33:29.910Z,35.20
2023-05-12T03:34:32.151Z,33.89
2023-05-12T03:35:34.695Z,37.00
2023-05-12T03:36:38.597Z,39.90
2023-05-12T03:37:40.925Z,42.40
2023-05-12T03:38:43.396Z,35.20
2023-05-12T03:39:47.576Z,43.50
2023-05-12T03:40:49.830Z,42.30
2023-05-12T03:41:52.126Z,35.10
2023-05-12T03:42:54.215Z,36.33
2023-05-12T03:43:56.497Z,38.90
2023-05-12T03:44:58.807Z,34.70
2023-05-12T03:46:01.222Z,40.70
2023-05-12T03:47:03.776Z,33.20
2023-05-12T03:48:06.092Z,37.30
2023-05-12T03:49:08.904Z,38.00
2023-05-12T03:50:13.200Z,30.80
2023-05-12T03:51:15.585Z,30.45
2023-05-12T03:52:17.864Z,29.30
2023-05-12T03:53:20.365Z,29.90
2023-05-12T03:54:22.655Z,23.60
2023-05-12T03:55:24.739Z,24.90
2023-05-12T03:56:27.154Z,22.00
2023-05-12T03:57:29.470Z,22.50
2023-05-12T03:58:31.737Z,21.70
2023-05-12T03:59:34.495Z,19.40
2023-05-12T04:00:38.825Z,21.60
2023-05-12T04:01:42.361Z,23.10
2023-05-12T04:02:44.565Z,21.90
2023-05-12T04:03:48.984Z,21.30
2023-05-12T04:04:51.447Z,20.40
2023-05-12T04:07:10.188Z,20.40
2023-05-12T04:08:12.493Z,21.10
2023-05-12T04:09:14.656Z,16.90
2023-05-12T04:10:17.181Z,17.30
2023-05-12T04:11:19.599Z,16.70
2023-05-12T04:12:23.008Z,17.50
2023-05-12T04:13:26.699Z,19.90
2023-05-12T04:14:41.622Z,17.80
2023-05-12T04:15:35.371Z,15.90
2023-05-12T04:16:38.604Z,16.30
2023-05-12T04:17:41.013Z,18.10
2023-05-12T04:18:43.401Z,17.80
2023-05-12T04:19:45.723Z,18.80
2023-05-12T04:20:49.361Z,17.55
2023-05-12T04:21:51.573Z,15.82
2023-05-12T04:22:53.809Z,18.50
2023-05-12T04:23:56.063Z,16.00
2023-05-12T04:25:00.144Z,19.80
2023-05-12T04:26:05.627Z,19.70
2023-05-12T04:27:08.555Z,21.00
2023-05-12T04:28:12.298Z,21.60
2023-05-12T04:29:15.277Z,22.50
2023-05-12T04:30:18.148Z,21.80
2023-05-12T04:31:20.857Z,23.40
2023-05-12T04:32:23.146Z,25.20
2023-05-12T04:33:26.178Z,21.60
2023-05-12T04:34:29.409Z,21.70
2023-05-12T04:35:32.060Z,17.10
2023-05-12T04:36:34.906Z,20.00
2023-05-12T04:37:36.941Z,21.70
2023-05-12T04:38:39.640Z,19.10
2023-05-12T04:39:41.834Z,17.70
2023-05-12T04:40:44.194Z,18.10
2023-05-12T04:41:46.948Z,18.10
2023-05-12T04:42:50.075Z,18.80
2023-05-12T04:44:57.355Z,16.30
2023-05-12T04:46:00.427Z,15.70
2023-05-12T04:47:03.323Z,18.10
2023-05-12T04:48:06.212Z,17.60
2023-05-12T04:49:08.601Z,15.90
2023-05-12T04:50:12.714Z,15.10
2023-05-12T04:51:15.430Z,21.10
2023-05-12T04:52:17.602Z,15.70
2023-05-12T04:53:19.873Z,14.50
2023-05-12T04:54:22.244Z,15.60
2023-05-12T04:55:24.950Z,12.00
2023-05-12T04:56:27.276Z,15.50
2023-05-12T04:57:29.970Z,5.70
2023-05-12T04:58:33.938Z,15.20
2023-05-12T04:59:36.339Z,14.82
2023-05-12T05:00:39.033Z,17.50
2023-05-12T05:01:41.972Z,14.50
2023-05-12T05:02:44.253Z,13.70
2023-05-12T05:03:46.846Z,14.00
2023-05-12T05:04:49.280Z,14.40
2023-05-12T05:05:51.559Z,13.60
2023-05-12T05:06:53.928Z,14.90
2023-05-12T05:07:56.232Z,13.20
2023-05-12T05:08:59.389Z,16.60
2023-05-12T05:10:01.930Z,12.73
2023-05-12T05:11:05.357Z,14.30
2023-05-12T05:12:08.113Z,17.10
2023-05-12T05:13:11.178Z,13.90
2023-05-12T05:14:13.360Z,13.00
2023-05-12T05:15:15.764Z,13.00
2023-05-12T05:16:19.026Z,11.80
2023-05-12T05:17:22.318Z,12.20
2023-05-12T05:18:24.769Z,11.00
2023-05-12T05:19:45.896Z,11.10
2023-05-12T05:20:33.543Z,9.40
2023-05-12T05:21:35.780Z,11.20
2023-05-12T05:22:38.088Z,14.30
2023-05-12T05:23:41.888Z,10.70
2023-05-12T05:24:44.638Z,12.10
2023-05-12T05:25:46.691Z,11.90
2023-05-12T05:26:48.867Z,13.10
2023-05-12T05:27:51.616Z,11.30
2023-05-12T05:28:54.506Z,11.30
2023-05-12T05:29:57.862Z,13.50
2023-05-12T05:31:00.601Z,14.10
2023-05-12T05:32:03.229Z,11.90
2023-05-12T05:33:05.565Z,13.50
2023-05-12T05:34:07.909Z,14.10
2023-05-12T05:35:10.185Z,13.20
2023-05-12T05:36:15.322Z,15.30
2023-05-12T05:37:17.705Z,13.10
2023-05-12T05:38:19.874Z,16.40
2023-05-12T05:39:23.760Z,16.00
2023-05-12T05:40:26.602Z,17.20
2023-05-12T05:41:28.835Z,14.80
2023-05-12T05:42:31.156Z,15.00
2023-05-12T05:43:34.767Z,13.30
2023-05-12T05:44:38.277Z,11.40
2023-05-12T05:45:40.737Z,13.30
2023-05-12T05:46:43.690Z,11.45
2023-05-12T05:47:46.134Z,12.40
2023-05-12T05:48:48.343Z,10.80
2023-05-12T05:49:51.066Z,12.60
2023-05-12T05:50:53.805Z,11.80
2023-05-12T05:51:57.667Z,12.60
2023-05-12T05:53:00.116Z,12.80
2023-05-12T05:54:02.365Z,13.60
2023-05-12T05:55:05.597Z,12.40
2023-05-12T05:56:08.602Z,11.90
2023-05-12T05:57:10.940Z,14.80
2023-05-12T05:58:13.459Z,13.70
2023-05-12T05:59:15.873Z,12.70
2023-05-12T06:00:18.876Z,12.64
2023-05-12T06:01:22.497Z,13.00
2023-05-12T06:02:25.047Z,11.10
2023-05-12T06:03:27.379Z,13.10
2023-05-12T06:04:29.820Z,12.90
2023-05-12T06:05:33.719Z,12.40
2023-05-12T06:06:36.617Z,10.55
2023-05-12T06:07:39.020Z,11.27
2023-05-12T06:08:41.147Z,12.70
2023-05-12T06:09:43.745Z,12.22
2023-05-12T06:10:46.248Z,13.64
2023-05-12T06:11:48.554Z,13.30
2023-05-12T06:12:51.180Z,15.00
2023-05-12T06:13:53.361Z,12.80
2023-05-12T06:14:56.126Z,12.40
2023-05-12T06:15:58.410Z,12.50
2023-05-12T06:17:01.861Z,10.90
2023-05-12T06:18:04.337Z,10.40
2023-05-12T06:19:06.547Z,11.50
2023-05-12T06:20:10.337Z,12.90
2023-05-12T06:21:12.925Z,15.10
2023-05-12T06:22:15.541Z,13.20
2023-05-12T06:23:18.221Z,13.40
2023-05-12T06:24:21.250Z,12.30
2023-05-12T06:25:23.902Z,10.90
2023-05-12T06:26:26.206Z,11.90
2023-05-12T06:27:28.322Z,10.20
2023-05-12T06:28:30.681Z,10.10
2023-05-12T06:29:33.399Z,9.00
2023-05-12T06:30:35.928Z,10.00
2023-05-12T06:31:38.223Z,9.30
2023-05-12T06:32:40.363Z,8.10
2023-05-12T06:33:43.129Z,9.20
2023-05-12T06:34:45.290Z,8.60
2023-05-12T06:35:47.447Z,7.60
2023-05-12T06:36:50.129Z,7.30
2023-05-12T06:37:52.412Z,9.20
2023-05-12T06:38:54.630Z,8.00
2023-05-12T06:39:57.318Z,8.00
2023-05-12T06:40:59.842Z,8.10
2023-05-12T06:42:02.744Z,7.40
2023-05-12T06:43:07.453Z,7.80
2023-05-12T06:44:10.862Z,8.10
2023-05-12T06:45:13.180Z,6.90
2023-05-12T06:46:16.174Z,5.70
2023-05-12T06:47:18.410Z,6.90
2023-05-12T06:48:23.003Z,6.80
2023-05-12T06:49:25.290Z,6.70
2023-05-12T06:50:27.461Z,7.50
2023-05-12T06:51:29.642Z,10.40
2023-05-12T06:52:31.928Z,14.50
2023-05-12T06:53:34.121Z,11.70
2023-05-12T06:54:36.345Z,11.89
2023-05-12T06:55:38.306Z,12.30
2023-05-12T06:56:40.489Z,9.30
2023-05-12T06:57:42.734Z,7.50
2023-05-12T06:58:45.147Z,8.40
2023-05-12T06:59:47.461Z,7.20
2023-05-12T07:00:49.858Z,6.10
2023-05-12T07:01:52.014Z,5.80
2023-05-12T07:02:54.354Z,6.70
2023-05-12T07:03:58.030Z,5.90
2023-05-12T07:05:00.989Z,7.10
2023-05-12T07:06:03.483Z,6.30
2023-05-12T07:07:05.994Z,6.50
2023-05-12T07:08:08.537Z,6.80
2023-05-12T07:09:10.831Z,5.50
2023-05-12T07:10:14.387Z,5.30
2023-05-12T07:11:16.666Z,5.70
2023-05-12T07:12:18.833Z,7.40
2023-05-12T07:13:21.861Z,10.00
2023-05-12T07:14:24.311Z,11.36
2023-05-12T07:15:26.691Z,10.50
2023-05-12T07:16:29.041Z,10.90
2023-05-12T07:17:31.850Z,7.80
2023-05-12T07:18:34.433Z,3.60
2023-05-12T07:19:36.653Z,5.40
2023-05-12T07:20:38.940Z,5.40
2023-05-12T07:21:41.128Z,4.10
2023-05-12T07:22:43.296Z,5.90
2023-05-12T07:23:45.595Z,13.70
2023-05-12T07:24:47.761Z,15.90
2023-05-12T07:25:56.479Z,12.90
2023-05-12T07:26:58.802Z,11.90
2023-05-12T07:28:01.598Z,14.60
2023-05-12T07:29:03.569Z,13.60
2023-05-12T07:30:07.288Z,14.40
2023-05-12T07:31:09.570Z,7.90
2023-05-12T07:32:12.901Z,8.70
2023-05-12T07:33:15.238Z,16.40
2023-05-12T07:34:17.404Z,18.20
2023-05-12T07:35:19.790Z,10.50
2023-05-12T07:36:22.288Z,7.10
2023-05-12T07:37:25.028Z,6.10
2023-05-12T07:38:27.175Z,4.50
2023-05-12T07:39:29.342Z,6.20
2023-05-12T07:40:31.603Z,4.60
2023-05-12T07:41:34.518Z,4.20
2023-05-12T07:42:36.900Z,3.20
2023-05-12T07:43:39.552Z,3.40
2023-05-12T07:44:42.489Z,8.10
2023-05-12T07:45:45.402Z,8.27
2023-05-12T07:46:48.274Z,7.73
2023-05-12T07:47:51.287Z,5.64
2023-05-12T07:48:54.155Z,5.55
2023-05-12T07:49:56.297Z,6.80
2023-05-12T07:50:59.008Z,4.50
2023-05-12T07:52:01.303Z,3.90
2023-05-12T07:53:04.127Z,4.80
2023-05-12T07:54:06.797Z,3.90
2023-05-12T07:55:09.396Z,3.20
2023-05-12T07:56:12.515Z,3.30
2023-05-12T07:57:15.222Z,4.30
2023-05-12T07:58:17.639Z,3.60
2023-05-12T07:59:19.813Z,4.10
2023-05-12T08:00:22.785Z,3.70
2023-05-12T08:01:25.696Z,4.55
2023-05-12T08:02:28.696Z,4.64
2023-05-12T08:03:32.512Z,6.30
2023-05-12T08:04:35.172Z,5.00
2023-05-12T08:05:37.448Z,0.00
2023-05-12T08:06:39.807Z,3.70
2023-05-12T08:07:43.246Z,4.70
2023-05-12T08:08:45.989Z,4.90
2023-05-12T08:09:48.193Z,4.50
2023-05-12T08:10:50.623Z,5.20
2023-05-12T08:11:52.716Z,5.90
2023-05-12T08:12:55.324Z,6.60
2023-05-12T08:13:57.580Z,6.30
2023-05-12T08:14:59.775Z,3.40
2023-05-12T08:16:02.001Z,3.50
2023-05-12T08:17:04.448Z,3.70
2023-05-12T08:18:06.849Z,3.40
2023-05-12T08:19:09.480Z,6.40
2023-05-12T08:20:12.414Z,13.30
2023-05-12T08:21:14.619Z,28.40
2023-05-12T08:22:16.808Z,39.40
2023-05-12T08:23:19.053Z,32.00
2023-05-12T08:24:21.752Z,20.20
2023-05-12T08:25:23.798Z,17.40
2023-05-12T08:26:26.644Z,14.30
2023-05-12T08:27:28.814Z,22.90
2023-05-12T08:28:31.281Z,36.10
2023-05-12T08:29:33.731Z,23.40
2023-05-12T08:30:36.549Z,15.10
2023-05-12T08:31:38.802Z,7.30
2023-05-12T08:32:41.654Z,4.60
2023-05-12T08:33:44.384Z,3.50
2023-05-12T08:34:46.690Z,3.40
2023-05-12T08:35:48.971Z,5.20
2023-05-12T08:36:55.605Z,7.20
2023-05-12T08:37:58.131Z,8.00
2023-05-12T08:39:01.036Z,5.20
2023-05-12T08:40:08.016Z,5.90
2023-05-12T08:41:19.704Z,7.90
2023-05-12T08:45:02.627Z,3.50
2023-05-12T08:46:06.076Z,11.40
2023-05-12T08:47:08.754Z,10.60
2023-05-12T08:48:12.588Z,8.70
2023-05-12T08:49:17.364Z,7.70
2023-05-12T08:50:23.253Z,4.60
2023-05-12T08:51:29.080Z,4.60
2023-05-12T08:52:35.278Z,9.10
2023-05-12T08:53:38.642Z,9.90
2023-05-12T08:54:52.253Z,5.20
2023-05-12T08:55:58.699Z,4.10
2023-05-12T08:57:59.373Z,2.50
2023-05-12T08:59:04.466Z,5.30
2023-05-12T09:00:08.599Z,4.80
2023-05-12T09:01:11.666Z,6.80
2023-05-12T09:02:16.737Z,8.70
2023-05-12T09:03:20.975Z,8.60
2023-05-12T09:04:23.265Z,8.90
2023-05-12T09:05:28.205Z,5.60
2023-05-12T09:06:32.130Z,4.50
2023-05-12T09:07:37.511Z,6.00
2023-05-12T09:08:40.227Z,3.30
2023-05-12T09:09:45.076Z,4.60
2023-05-12T09:10:48.767Z,4.20
2023-05-12T09:11:54.084Z,4.60
2023-05-12T09:12:59.736Z,3.60
2023-05-12T09:14:11.474Z,3.20
2023-05-12T09:15:17.214Z,3.20
2023-05-12T09:16:25.624Z,3.20
2023-05-12T09:17:28.213Z,4.40
2023-05-12T09:20:02.897Z,4.50
2023-05-12T09:21:05.109Z,5.70
2023-05-12T09:22:07.798Z,9.10
2023-05-12T09:24:37.270Z,6.80
2023-05-12T09:25:39.643Z,6.20
2023-05-12T09:26:50.762Z,7.30
2023-05-12T09:27:55.624Z,4.40
2023-05-12T09:29:06.772Z,9.20
2023-05-12T09:30:09.632Z,14.00
2023-05-12T09:31:20.516Z,9.60
2023-05-12T09:32:33.009Z,7.30
2023-05-12T09:33:35.768Z,8.00
2023-05-12T09:34:37.955Z,7.80
2023-05-12T09:35:41.947Z,6.60
2023-05-12T09:36:47.113Z,4.00
2023-05-12T09:37:49.710Z,5.00
2023-05-12T09:38:59.505Z,22.10
2023-05-12T09:40:07.739Z,20.90
2023-05-12T09:41:10.584Z,12.60
2023-05-12T09:42:14.319Z,8.55
2023-05-12T09:43:17.241Z,7.80
2023-05-12T09:44:19.969Z,6.00
2023-05-12T09:45:23.672Z,26.30
2023-05-12T09:46:26.731Z,59.80
2023-05-12T09:47:34.451Z,64.10
2023-05-12T09:48:37.847Z,60.70
2023-05-12T09:49:43.548Z,37.73
2023-05-12T09:50:50.825Z,13.60
2023-05-12T09:51:57.892Z,5.20
2023-05-12T09:53:00.002Z,5.40
2023-05-12T09:54:02.167Z,5.30
2023-05-12T09:55:08.972Z,5.70
2023-05-12T09:57:25.915Z,6.40
2023-05-12T09:58:28.676Z,5.10
2023-05-12T09:59:33.400Z,5.18
2023-05-12T10:00:52.396Z,4.10
2023-05-12T10:01:43.426Z,12.00
2023-05-12T10:02:51.325Z,14.40
2023-05-12T10:03:55.796Z,7.20
2023-05-12T10:05:01.539Z,5.60
2023-05-12T10:06:07.985Z,4.30
2023-05-12T10:07:12.793Z,3.20
2023-05-12T10:09:38.195Z,4.20
2023-05-12T10:10:41.092Z,5.50
2023-05-12T10:11:44.590Z,9.80
2023-05-12T10:12:48.058Z,8.20
2023-05-12T10:13:51.498Z,8.30
2023-05-12T10:14:55.956Z,11.30
2023-05-12T10:15:59.430Z,5.70
2023-05-12T10:17:02.107Z,6.70
2023-05-12T10:18:04.766Z,15.30
2023-05-12T10:19:09.706Z,20.10
2023-05-12T10:20:13.001Z,20.30
2023-05-12T10:21:18.461Z,15.90
2023-05-12T10:22:21.762Z,6.70
2023-05-12T10:23:26.200Z,9.50
2023-05-12T10:24:28.422Z,10.20
2023-05-12T10:25:32.040Z,7.00
2023-05-12T10:26:36.363Z,6.60
2023-05-12T10:27:39.828Z,4.40
2023-05-12T10:28:42.730Z,4.60
2023-05-12T10:29:46.091Z,2.82
2023-05-12T10:30:49.871Z,4.90
2023-05-12T10:31:52.209Z,3.80
2023-05-12T10:32:54.625Z,4.40
2023-05-12T10:34:01.921Z,13.90
2023-05-12T10:35:11.461Z,26.60
2023-05-12T10:36:18.386Z,15.80
2023-05-12T10:37:23.428Z,10.00
2023-05-12T10:38:25.767Z,6.60
2023-05-12T10:39:31.302Z,3.00
2023-05-12T10:40:34.373Z,3.20
2023-05-12T10:41:36.548Z,3.90
2023-05-12T10:42:43.436Z,3.40
2023-05-12T10:43:48.738Z,3.40
2023-05-12T10:44:52.642Z,3.80
2023-05-12T10:46:18.569Z,3.20
2023-05-12T10:47:37.794Z,2.70
2023-05-12T10:49:00.941Z,3.90
2023-05-12T10:50:03.506Z,4.50
2023-05-12T10:51:11.713Z,3.50
2023-05-12T10:52:17.955Z,3.40
2023-05-12T10:53:38.055Z,4.80
2023-05-12T10:56:06.992Z,4.60
2023-05-12T10:57:19.250Z,3.80
2023-05-12T10:58:22.068Z,2.80
2023-05-12T10:59:26.295Z,4.80
2023-05-12T11:00:30.141Z,14.70
2023-05-12T11:01:33.553Z,23.50
2023-05-12T11:02:37.413Z,39.20
2023-05-12T11:03:41.207Z,60.10
2023-05-12T11:04:52.847Z,106.20
2023-05-12T11:06:03.011Z,99.30
2023-05-12T11:07:06.205Z,101.80
2023-05-12T11:08:09.666Z,86.91
2023-05-12T11:09:13.371Z,73.30
2023-05-12T11:10:17.564Z,68.80
2023-05-12T11:11:20.457Z,132.70
2023-05-12T11:12:23.435Z,220.70
2023-05-12T11:13:26.525Z,138.82
2023-05-12T11:14:29.173Z,73.45
2023-05-12T11:15:31.368Z,30.90
2023-05-12T11:16:33.978Z,17.50
2023-05-12T11:17:40.454Z,9.10
2023-05-12T11:18:43.482Z,10.20
2023-05-12T11:19:48.026Z,6.36
2023-05-12T11:20:51.024Z,4.70
2023-05-12T11:21:55.052Z,0.55
2023-05-12T11:22:57.323Z,4.30
2023-05-12T11:24:01.234Z,5.90
2023-05-12T11:25:11.085Z,11.40
2023-05-12T11:26:17.939Z,16.60
2023-05-12T11:27:21.490Z,30.60
2023-05-12T11:28:23.938Z,37.00
2023-05-12T11:29:26.585Z,14.70
2023-05-12T11:30:28.873Z,7.30
2023-05-12T11:31:31.535Z,4.60
2023-05-12T11:32:34.322Z,4.60
2023-05-12T11:33:37.516Z,3.90
2023-05-12T11:34:39.676Z,3.09
2023-05-12T11:35:42.418Z,12.20
2023-05-12T11:36:44.868Z,13.55
2023-05-12T11:37:47.040Z,13.70
2023-05-12T11:39:59.940Z,6.10
2023-05-12T11:41:02.595Z,5.20
2023-05-12T11:42:13.087Z,6.30
2023-05-12T11:43:12.745Z,4.80
2023-05-12T11:44:20.778Z,5.70
2023-05-12T11:46:34.636Z,4.10
2023-05-12T11:47:37.098Z,5.40
2023-05-12T11:48:39.395Z,3.70
2023-05-12T11:50:59.485Z,3.20
2023-05-12T11:52:02.128Z,4.82
2023-05-12T11:53:04.375Z,5.00
2023-05-12T11:54:06.966Z,5.30
2023-05-12T11:55:10.730Z,4.80
2023-05-12T11:56:21.905Z,5.60
2023-05-12T11:58:39.213Z,3.60
2023-05-12T11:59:41.471Z,4.20
2023-05-12T12:00:44.286Z,3.80
2023-05-12T12:01:46.522Z,3.80
2023-05-12T12:02:48.772Z,3.80
2023-05-12T12:03:57.105Z,4.00
2023-05-12T12:05:00.072Z,3.00
2023-05-12T12:06:04.249Z,3.09
2023-05-12T12:07:07.762Z,2.90
2023-05-12T12:08:15.211Z,2.90
2023-05-12T12:09:17.933Z,3.10
2023-05-12T12:10:20.389Z,2.18
2023-05-12T12:11:25.001Z,2.90
2023-05-12T12:12:27.298Z,5.00
2023-05-12T12:13:29.558Z,3.80
2023-05-12T12:14:32.771Z,4.50
2023-05-12T12:15:35.110Z,4.10
2023-05-12T12:16:37.921Z,4.00
2023-05-12T12:17:40.717Z,3.91
2023-05-12T12:18:43.865Z,3.45
2023-05-12T12:19:46.242Z,3.00
2023-05-12T12:20:48.660Z,3.20
2023-05-12T12:21:51.319Z,3.50
2023-05-12T12:22:54.173Z,2.60
2023-05-12T12:23:56.932Z,3.18
2023-05-12T12:24:59.748Z,3.20
2023-05-12T12:26:02.419Z,4.27
2023-05-12T12:27:05.180Z,3.80
2023-05-12T12:28:07.399Z,2.80
2023-05-12T12:29:09.695Z,3.20
2023-05-12T12:30:14.757Z,3.80
2023-05-12T12:31:17.078Z,3.90
2023-05-12T12:32:20.371Z,3.10
2023-05-12T12:33:25.781Z,2.80
2023-05-12T12:34:28.061Z,2.60
2023-05-12T12:35:30.876Z,2.60
2023-05-12T12:36:33.876Z,3.00
2023-05-12T12:37:36.176Z,4.00
2023-05-12T12:38:38.368Z,4.40
2023-05-12T12:39:40.650Z,3.10
2023-05-12T12:40:43.221Z,4.00
2023-05-12T12:41:46.148Z,4.10
2023-05-12T12:42:48.347Z,1.70
2023-05-12T12:43:50.932Z,1.80
2023-05-12T12:44:53.319Z,3.90
2023-05-12T12:45:55.726Z,3.10
2023-05-12T12:46:57.939Z,2.40
2023-05-12T12:48:02.504Z,3.30
2023-05-12T12:49:04.820Z,3.00
2023-05-12T12:50:08.431Z,3.20
2023-05-12T12:51:10.897Z,3.27
2023-05-12T12:52:13.699Z,3.50
2023-05-12T12:53:16.579Z,5.18
2023-05-12T12:54:18.872Z,3.09
2023-05-12T12:55:21.548Z,3.20
2023-05-12T12:56:25.543Z,3.60
2023-05-12T12:57:28.244Z,3.20
2023-05-12T12:58:30.604Z,1.80
2023-05-12T12:59:32.812Z,4.60
2023-05-12T13:00:35.768Z,5.50
2023-05-12T13:01:39.093Z,4.50
2023-05-12T13:02:41.379Z,3.00
2023-05-12T13:03:43.816Z,3.40
2023-05-12T13:04:45.986Z,3.40
2023-05-12T13:05:48.851Z,4.70
2023-05-12T13:06:51.207Z,4.36
2023-05-12T13:07:53.865Z,3.20
2023-05-12T13:08:56.632Z,7.60
2023-05-12T13:09:58.918Z,10.91
2023-05-12T13:11:01.304Z,12.50
2023-05-12T13:12:04.301Z,12.90
2023-05-12T13:13:06.539Z,15.00
2023-05-12T13:14:08.866Z,14.10
2023-05-12T13:15:12.460Z,8.70
2023-05-12T13:16:16.178Z,5.30
2023-05-12T13:17:18.284Z,4.70
2023-05-12T13:18:20.700Z,4.40
2023-05-12T13:19:23.119Z,4.00
2023-05-12T13:20:25.303Z,3.90
2023-05-12T13:21:28.630Z,2.70
2023-05-12T13:22:31.965Z,3.00
2023-05-12T13:23:34.535Z,2.70
2023-05-12T13:24:37.315Z,4.00
2023-05-12T13:25:39.464Z,3.20
2023-05-12T13:26:41.738Z,3.50
2023-05-12T13:27:43.944Z,3.10
2023-05-12T13:28:46.040Z,5.10
2023-05-12T13:29:48.698Z,6.90
2023-05-12T13:30:54.112Z,4.20
2023-05-12T13:31:56.412Z,5.00
2023-05-12T13:32:59.193Z,3.50
2023-05-12T13:34:01.517Z,2.82
2023-05-12T13:35:04.233Z,3.30
2023-05-12T13:36:07.553Z,5.36
2023-05-12T13:37:09.837Z,15.60
2023-05-12T13:38:13.106Z,14.30
2023-05-12T13:39:16.061Z,7.80
2023-05-12T13:40:19.667Z,5.30
2023-05-12T13:41:21.839Z,3.60
2023-05-12T13:42:24.019Z,3.50
2023-05-12T13:43:26.197Z,3.00
2023-05-12T13:44:28.818Z,4.30
2023-05-12T13:45:31.137Z,5.60
2023-05-12T13:46:33.364Z,4.50
2023-05-12T13:47:35.712Z,2.80
2023-05-12T13:48:38.077Z,4.20
2023-05-12T13:49:40.952Z,3.20
2023-05-12T13:50:43.685Z,3.70
2023-05-12T13:51:45.832Z,6.50
2023-05-12T13:52:48.061Z,17.10
2023-05-12T13:53:50.189Z,14.00
2023-05-12T13:54:52.854Z,12.50
2023-05-12T13:55:55.074Z,12.00
2023-05-12T13:56:57.462Z,8.20
2023-05-12T13:57:59.689Z,4.40
2023-05-12T13:59:02.501Z,2.20
2023-05-12T14:00:05.909Z,2.27
2023-05-12T14:01:10.777Z,1.80
2023-05-12T14:02:13.096Z,1.20
2023-05-12T14:03:15.192Z,1.70
2023-05-12T14:04:17.400Z,1.20
2023-05-12T14:05:19.786Z,0.80